createdAt,value
2023-06-14T00:00:17.072Z,425.00
2023-06-14T00:01:16.796Z,425.00
2023-06-14T00:02:16.821Z,427.00
2023-06-14T00:03:16.790Z,425.00
2023-06-14T00:04:16.784Z,424.00
2023-06-14T00:05:16.754Z,425.00
2023-06-14T00:06:16.749Z,425.00
2023-06-14T00:07:16.757Z,426.00
2023-06-14T00:08:16.727Z,425.00
2023-06-14T00:09:16.716Z,424.00
2023-06-14T00:10:17.004Z,423.00
2023-06-14T00:11:16.730Z,425.00
2023-06-14T00:12:16.692Z,426.00
2023-06-14T00:13:16.706Z,426.00
2023-06-14T00:14:16.684Z,426.00
2023-06-14T00:15:16.691Z,426.00
2023-06-14T00:16:16.709Z,424.00
2023-06-14T00:17:16.708Z,425.00
2023-06-14T00:18:16.664Z,426.00
2023-06-14T00:19:16.664Z,427.00
2023-06-14T00:20:16.885Z,429.00
2023-06-14T00:21:16.671Z,430.00
2023-06-14T00:22:16.626Z,427.00
2023-06-14T00:23:16.614Z,426.00
2023-06-14T00:24:16.754Z,426.00
2023-06-14T00:25:28.872Z,426.00
2023-06-14T00:26:17.634Z,425.00
2023-06-14T00:27:16.625Z,426.00
2023-06-14T00:28:16.598Z,425.00
2023-06-14T00:29:16.602Z,424.00
2023-06-14T00:30:16.729Z,422.00
2023-06-14T00:31:16.578Z,420.00
2023-06-14T00:32:16.657Z,420.00
2023-06-14T00:33:16.661Z,422.00
2023-06-14T00:34:16.583Z,423.00
2023-06-14T00:35:16.552Z,423.00
2023-06-14T00:36:16.554Z,425.00
2023-06-14T00:37:16.538Z,425.00
2023-06-14T00:38:16.570Z,425.00
2023-06-14T00:39:16.550Z,425.00
2023-06-14T00:40:16.714Z,426.00
2023-06-14T00:41:16.531Z,426.00
2023-06-14T00:42:16.528Z,424.00
2023-06-14T00:43:16.499Z,423.00
2023-06-14T00:44:16.508Z,422.00
2023-06-14T00:45:16.507Z,423.00
2023-06-14T00:46:16.554Z,425.00
2023-06-14T00:47:16.473Z,427.00
2023-06-14T00:48:16.495Z,428.00
2023-06-14T00:49:16.457Z,428.00
2023-06-14T00:50:16.563Z,427.00
2023-06-14T00:51:16.467Z,425.00
2023-06-14T00:52:16.457Z,424.00
2023-06-14T00:53:16.432Z,424.00
2023-06-14T00:54:16.432Z,425.00
2023-06-14T00:55:16.458Z,423.00
2023-06-14T00:56:16.457Z,425.00
2023-06-14T00:57:16.492Z,426.00
2023-06-14T00:58:16.504Z,424.00
2023-06-14T00:59:16.556Z,422.00
2023-06-14T01:00:16.823Z,422.00
2023-06-14T01:01:16.540Z,423.00
2023-06-14T01:02:16.588Z,423.00
2023-06-14T01:03:16.610Z,422.00
2023-06-14T01:04:16.624Z,422.00
2023-06-14T01:05:16.570Z,421.00
2023-06-14T01:06:16.615Z,422.00
2023-06-14T01:07:16.614Z,423.00
2023-06-14T01:08:16.638Z,424.00
2023-06-14T01:09:16.645Z,424.00
2023-06-14T01:10:16.938Z,425.00
2023-06-14T01:11:16.693Z,424.00
2023-06-14T01:12:16.683Z,424.00
2023-06-14T01:13:16.688Z,424.00
2023-06-14T01:14:16.747Z,424.00
2023-06-14T01:15:16.751Z,422.00
2023-06-14T01:16:16.790Z,422.00
2023-06-14T01:17:16.771Z,422.00
2023-06-14T01:18:16.766Z,422.00
2023-06-14T01:19:16.797Z,420.00
2023-06-14T01:20:16.816Z,421.00
2023-06-14T01:21:16.840Z,421.00
2023-06-14T01:22:16.847Z,421.00
2023-06-14T01:23:16.867Z,422.00
2023-06-14T01:24:16.950Z,422.00
2023-06-14T01:25:16.914Z,421.00
2023-06-14T01:26:16.924Z,421.00
2023-06-14T01:27:16.976Z,422.00
2023-06-14T01:28:16.975Z,420.00
2023-06-14T01:29:16.979Z,422.00
2023-06-14T01:30:17.275Z,423.00
2023-06-14T01:31:17.012Z,427.00
2023-06-14T01:32:17.017Z,430.00
2023-06-14T01:33:17.042Z,429.00
2023-06-14T01:34:17.072Z,430.00
2023-06-14T01:35:17.222Z,428.00
2023-06-14T01:36:17.096Z,428.00
2023-06-14T01:37:17.101Z,428.00
2023-06-14T01:38:17.122Z,428.00
2023-06-14T01:39:17.150Z,428.00
2023-06-14T01:40:17.547Z,428.00
2023-06-14T01:41:17.174Z,427.00
2023-06-14T01:42:17.189Z,428.00
2023-06-14T01:43:17.190Z,426.00
2023-06-14T01:44:17.218Z,424.00
2023-06-14T01:45:17.230Z,425.00
2023-06-14T01:46:17.284Z,425.00
2023-06-14T01:47:17.272Z,426.00
2023-06-14T01:48:17.288Z,426.00
2023-06-14T01:49:17.309Z,425.00
2023-06-14T01:50:17.559Z,427.00
2023-06-14T01:51:17.326Z,428.00
2023-06-14T01:52:17.360Z,429.00
2023-06-14T01:53:17.381Z,432.00
2023-06-14T01:54:17.405Z,433.00
2023-06-14T01:55:17.437Z,433.00
2023-06-14T01:56:17.445Z,433.00
2023-06-14T01:57:17.462Z,435.00
2023-06-14T01:58:17.489Z,433.00
2023-06-14T01:59:17.495Z,432.00
2023-06-14T02:00:17.735Z,432.00
2023-06-14T02:01:17.650Z,429.00
2023-06-14T02:02:17.574Z,426.00
2023-06-14T02:03:17.577Z,426.00
2023-06-14T02:04:17.600Z,425.00
2023-06-14T02:05:17.698Z,424.00
2023-06-14T02:06:17.657Z,422.00
2023-06-14T02:07:17.750Z,422.00
2023-06-14T02:08:17.681Z,423.00
2023-06-14T02:09:17.700Z,424.00
2023-06-14T02:10:17.899Z,425.00
2023-06-14T02:11:17.770Z,425.00
2023-06-14T02:12:17.788Z,425.00
2023-06-14T02:13:17.823Z,424.00
2023-06-14T02:14:17.830Z,427.00
2023-06-14T02:15:17.895Z,427.00
2023-06-14T02:16:17.907Z,426.00
2023-06-14T02:17:17.918Z,427.00
2023-06-14T02:18:17.941Z,429.00
2023-06-14T02:19:17.968Z,429.00
2023-06-14T02:20:18.131Z,431.00
2023-06-14T02:21:18.025Z,430.00
2023-06-14T02:22:18.050Z,430.00
2023-06-14T02:23:18.088Z,431.00
2023-06-14T02:24:18.152Z,430.00
2023-06-14T02:25:18.153Z,431.00
2023-06-14T02:26:18.160Z,431.00
2023-06-14T02:27:18.177Z,432.00
2023-06-14T02:28:18.207Z,433.00
2023-06-14T02:29:18.234Z,433.00
2023-06-14T02:30:18.533Z,433.00
2023-06-14T02:31:18.321Z,432.00
2023-06-14T02:32:18.315Z,435.00
2023-06-14T02:33:18.358Z,435.00
2023-06-14T02:34:18.388Z,435.00
2023-06-14T02:35:18.432Z,435.00
2023-06-14T02:36:18.462Z,434.00
2023-06-14T02:37:18.525Z,434.00
2023-06-14T02:38:18.523Z,435.00
2023-06-14T02:39:18.535Z,437.00
2023-06-14T02:40:18.830Z,436.00
2023-06-14T02:41:18.604Z,435.00
2023-06-14T02:42:18.633Z,435.00
2023-06-14T02:43:18.686Z,438.00
2023-06-14T02:44:18.690Z,437.00
2023-06-14T02:45:18.729Z,440.00
2023-06-14T02:46:18.761Z,442.00
2023-06-14T02:47:18.828Z,442.00
2023-06-14T02:48:18.880Z,443.00
2023-06-14T02:49:18.870Z,440.00
2023-06-14T02:50:18.899Z,439.00
2023-06-14T02:51:18.915Z,438.00
2023-06-14T02:52:18.943Z,438.00
2023-06-14T02:53:19.028Z,441.00
2023-06-14T02:54:19.027Z,440.00
2023-06-14T02:55:19.042Z,441.00
2023-06-14T02:56:19.088Z,443.00
2023-06-14T02:57:19.121Z,442.00
2023-06-14T02:58:19.166Z,443.00
2023-06-14T02:59:19.176Z,442.00
2023-06-14T03:00:19.527Z,443.00
2023-06-14T03:01:19.339Z,444.00
2023-06-14T03:02:19.312Z,444.00
2023-06-14T03:03:19.444Z,446.00
2023-06-14T03:04:19.387Z,444.00
2023-06-14T03:05:19.427Z,443.00
2023-06-14T03:06:19.451Z,439.00
2023-06-14T03:07:19.493Z,440.00
2023-06-14T03:08:19.557Z,438.00
2023-06-14T03:09:19.585Z,437.00
2023-06-14T03:10:19.653Z,438.00
2023-06-14T03:11:19.657Z,437.00
2023-06-14T03:12:19.692Z,434.00
2023-06-14T03:13:19.731Z,436.00
2023-06-14T03:14:19.779Z,436.00
2023-06-14T03:15:19.800Z,437.00
2023-06-14T03:16:19.878Z,438.00
2023-06-14T03:17:19.878Z,435.00
2023-06-14T03:18:19.927Z,433.00
2023-06-14T03:19:19.961Z,433.00
2023-06-14T03:20:19.997Z,434.00
2023-06-14T03:21:20.033Z,435.00
2023-06-14T03:22:20.077Z,436.00
2023-06-14T03:23:20.132Z,437.00
2023-06-14T03:24:20.179Z,433.00
2023-06-14T03:25:20.202Z,434.00
2023-06-14T03:26:20.247Z,435.00
2023-06-14T03:27:20.260Z,433.00
2023-06-14T03:28:20.302Z,432.00
2023-06-14T03:29:20.376Z,433.00
2023-06-14T03:30:20.406Z,433.00
2023-06-14T03:31:20.631Z,436.00
2023-06-14T03:32:20.461Z,433.00
2023-06-14T03:33:20.484Z,432.00
2023-06-14T03:34:20.525Z,431.00
2023-06-14T03:35:20.581Z,432.00
2023-06-14T03:36:20.621Z,431.00
2023-06-14T03:37:20.646Z,433.00
2023-06-14T03:38:20.700Z,435.00
2023-06-14T03:39:20.733Z,433.00
2023-06-14T03:40:20.776Z,435.00
2023-06-14T03:41:20.821Z,434.00
2023-06-14T03:42:20.865Z,433.00
2023-06-14T03:43:20.942Z,430.00
2023-06-14T03:44:20.953Z,428.00
2023-06-14T03:45:20.983Z,430.00
2023-06-14T03:46:21.034Z,431.00
2023-06-14T03:47:21.162Z,430.00
2023-06-14T03:48:21.194Z,430.00
2023-06-14T03:49:21.155Z,430.00
2023-06-14T03:50:21.171Z,432.00
2023-06-14T03:51:21.229Z,433.00
2023-06-14T03:52:21.258Z,434.00
2023-06-14T03:53:21.283Z,438.00
2023-06-14T03:56:21.322Z,435.00
2023-06-14T03:57:21.305Z,437.00
2023-06-14T03:58:21.286Z,438.00
2023-06-14T03:59:21.307Z,438.00
2023-06-14T04:00:21.289Z,438.00
2023-06-14T04:01:21.270Z,439.00
2023-06-14T04:02:21.394Z,441.00
2023-06-14T04:03:21.341Z,441.00
2023-06-14T04:04:21.260Z,439.00
2023-06-14T04:05:21.275Z,437.00
2023-06-14T04:06:21.248Z,436.00
2023-06-14T04:07:21.250Z,434.00
2023-06-14T04:08:21.229Z,431.00
2023-06-14T04:09:21.231Z,429.00
2023-06-14T04:10:21.239Z,430.00
2023-06-14T04:11:21.211Z,430.00
2023-06-14T04:12:21.210Z,426.00
2023-06-14T04:13:21.202Z,426.00
2023-06-14T04:14:21.228Z,426.00
2023-06-14T04:15:22.123Z,428.00
2023-06-14T04:16:21.201Z,428.00
2023-06-14T04:17:21.197Z,431.00
2023-06-14T04:18:23.964Z,430.00
2023-06-14T04:19:21.174Z,431.00
2023-06-14T04:20:21.161Z,430.00
2023-06-14T04:21:21.165Z,431.00
2023-06-14T04:22:21.137Z,434.00
2023-06-14T04:23:21.125Z,433.00
2023-06-14T04:24:21.144Z,435.00
2023-06-14T04:25:23.978Z,434.00
2023-06-14T04:26:21.130Z,435.00
2023-06-14T04:27:21.102Z,436.00
2023-06-14T04:28:21.114Z,436.00
2023-06-14T04:29:21.093Z,438.00
2023-06-14T04:30:21.076Z,439.00
2023-06-14T04:31:21.076Z,442.00
2023-06-14T04:32:21.122Z,442.00
2023-06-14T04:33:21.153Z,442.00
2023-06-14T04:34:21.060Z,441.00
2023-06-14T04:35:21.038Z,439.00
2023-06-14T04:36:21.068Z,439.00
2023-06-14T04:37:21.029Z,443.00
2023-06-14T04:38:21.032Z,445.00
2023-06-14T04:39:21.020Z,441.00
2023-06-14T04:40:21.016Z,439.00
2023-06-14T04:41:21.023Z,439.00
2023-06-14T04:42:21.014Z,438.00
2023-06-14T04:43:21.021Z,441.00
2023-06-14T04:44:20.993Z,441.00
2023-06-14T04:45:21.000Z,445.00
2023-06-14T04:46:21.013Z,447.00
2023-06-14T04:47:20.981Z,448.00
2023-06-14T04:48:20.972Z,448.00
2023-06-14T04:49:20.986Z,448.00
2023-06-14T04:50:20.960Z,448.00
2023-06-14T04:51:20.945Z,449.00
2023-06-14T04:52:20.954Z,449.00
2023-06-14T04:53:20.931Z,451.00
2023-06-14T04:54:20.944Z,451.00
2023-06-14T04:55:20.947Z,452.00
2023-06-14T04:56:20.915Z,450.00
2023-06-14T04:57:20.918Z,451.00
2023-06-14T04:58:20.907Z,453.00
2023-06-14T04:59:20.903Z,451.00
2023-06-14T05:00:20.890Z,450.00
2023-06-14T05:01:20.969Z,450.00
2023-06-14T05:02:20.952Z,451.00
2023-06-14T05:03:20.964Z,454.00
2023-06-14T05:04:20.872Z,452.00
2023-06-14T05:05:20.874Z,453.00
2023-06-14T05:06:20.886Z,453.00
2023-06-14T05:07:20.847Z,452.00
2023-06-14T05:08:20.838Z,454.00
2023-06-14T05:09:20.848Z,454.00
2023-06-14T05:10:20.833Z,454.00
2023-06-14T05:11:20.809Z,454.00
2023-06-14T05:12:20.813Z,454.00
2023-06-14T05:13:20.808Z,456.00
2023-06-14T05:14:20.790Z,457.00
2023-06-14T05:15:20.791Z,457.00
2023-06-14T05:16:20.835Z,458.00
2023-06-14T05:17:20.807Z,459.00
2023-06-14T05:18:20.777Z,458.00
2023-06-14T05:19:20.764Z,456.00
2023-06-14T05:20:20.745Z,455.00
2023-06-14T05:21:20.754Z,453.00
2023-06-14T05:22:20.745Z,451.00
2023-06-14T05:23:20.727Z,451.00
2023-06-14T05:24:20.749Z,450.00
2023-06-14T05:25:20.735Z,450.00
2023-06-14T05:26:20.737Z,450.00
2023-06-14T05:27:20.802Z,450.00
2023-06-14T05:28:20.702Z,461.00
2023-06-14T05:29:20.684Z,467.00
2023-06-14T05:30:20.688Z,473.00
2023-06-14T05:31:20.722Z,479.00
2023-06-14T05:32:20.672Z,480.00
2023-06-14T05:33:20.831Z,493.00
2023-06-14T05:34:20.657Z,497.00
2023-06-14T05:35:20.637Z,512.00
2023-06-14T05:36:20.637Z,525.00
2023-06-14T05:37:20.639Z,529.00
2023-06-14T05:38:20.631Z,532.00
2023-06-14T05:39:20.642Z,541.00
2023-06-14T05:40:20.633Z,550.00
2023-06-14T05:41:20.643Z,560.00
2023-06-14T05:42:20.591Z,577.00
2023-06-14T05:43:21.543Z,616.00
2023-06-14T05:44:20.597Z,631.00
2023-06-14T05:45:20.583Z,721.00
2023-06-14T05:46:20.647Z,740.00
2023-06-14T05:47:20.578Z,743.00
2023-06-14T05:48:20.597Z,753.00
2023-06-14T05:49:20.550Z,765.00
2023-06-14T05:50:20.567Z,784.00
2023-06-14T05:51:20.595Z,797.00
2023-06-14T05:52:20.555Z,812.00
2023-06-14T05:53:20.557Z,814.00
2023-06-14T05:54:20.516Z,804.00
2023-06-14T05:55:20.518Z,725.00
2023-06-14T05:56:20.513Z,718.00
2023-06-14T05:57:20.520Z,717.00
2023-06-14T05:58:20.508Z,838.00
2023-06-14T05:59:20.533Z,667.00
2023-06-14T06:00:20.518Z,658.00
2023-06-14T06:01:20.472Z,735.00
2023-06-14T06:02:20.595Z,717.00
2023-06-14T06:03:20.733Z,729.00
2023-06-14T06:04:20.726Z,719.00
2023-06-14T06:05:20.684Z,708.00
2023-06-14T06:06:20.735Z,691.00
2023-06-14T06:07:20.745Z,693.00
2023-06-14T06:08:20.786Z,669.00
2023-06-14T06:09:20.822Z,649.00
2023-06-14T06:10:20.877Z,672.00
2023-06-14T06:11:20.956Z,760.00
2023-06-14T06:12:20.977Z,732.00
2023-06-14T06:13:21.017Z,764.00
2023-06-14T06:14:21.066Z,750.00
2023-06-14T06:15:21.087Z,749.00
2023-06-14T06:16:21.191Z,741.00
2023-06-14T06:17:21.205Z,773.00
2023-06-14T06:18:21.288Z,767.00
2023-06-14T06:19:21.316Z,708.00
2023-06-14T06:20:21.307Z,783.00
2023-06-14T06:21:21.661Z,786.00
2023-06-14T06:22:21.644Z,746.00
2023-06-14T06:23:21.380Z,741.00
2023-06-14T06:24:21.449Z,747.00
2023-06-14T06:25:21.454Z,748.00
2023-06-14T06:26:21.474Z,760.00
2023-06-14T06:27:21.513Z,759.00
2023-06-14T06:28:21.560Z,761.00
2023-06-14T06:29:21.552Z,772.00
2023-06-14T06:30:21.615Z,790.00
2023-06-14T06:31:21.652Z,805.00
2023-06-14T06:32:21.654Z,795.00
2023-06-14T06:33:21.667Z,733.00
2023-06-14T06:34:21.658Z,808.00
2023-06-14T06:35:21.680Z,779.00
2023-06-14T06:36:21.713Z,719.00
2023-06-14T06:37:21.771Z,699.00
2023-06-14T06:38:21.755Z,722.00
2023-06-14T06:39:21.768Z,723.00
2023-06-14T06:40:21.850Z,703.00
2023-06-14T06:41:22.148Z,706.00
2023-06-14T06:42:21.870Z,726.00
2023-06-14T06:43:21.887Z,731.00
2023-06-14T06:44:21.922Z,732.00
2023-06-14T06:45:23.637Z,722.00
2023-06-14T06:46:22.183Z,699.00
2023-06-14T06:47:21.942Z,693.00
2023-06-14T06:48:21.963Z,698.00
2023-06-14T06:49:21.911Z,709.00
2023-06-14T06:50:21.903Z,676.00
2023-06-14T06:51:21.910Z,692.00
2023-06-14T06:52:21.899Z,698.00
2023-06-14T06:53:34.812Z,701.00
2023-06-14T06:54:22.869Z,702.00
2023-06-14T06:55:21.881Z,704.00
2023-06-14T06:56:21.870Z,703.00
2023-06-14T06:57:21.854Z,694.00
2023-06-14T06:58:21.863Z,690.00
2023-06-14T06:59:21.836Z,685.00
2023-06-14T07:00:21.854Z,694.00
2023-06-14T07:01:21.919Z,660.00
2023-06-14T07:02:21.917Z,656.00
2023-06-14T07:03:21.812Z,656.00
2023-06-14T07:04:21.839Z,665.00
2023-06-14T07:05:21.847Z,670.00
2023-06-14T07:06:21.817Z,676.00
2023-06-14T07:07:22.144Z,673.00
2023-06-14T07:08:21.777Z,670.00
2023-06-14T07:09:21.772Z,672.00
2023-06-14T07:10:21.763Z,667.00
2023-06-14T07:11:21.770Z,678.00
2023-06-14T07:12:21.790Z,672.00
2023-06-14T07:13:21.767Z,713.00
2023-06-14T07:14:21.749Z,734.00
2023-06-14T07:15:21.764Z,736.00
2023-06-14T07:16:21.763Z,730.00
2023-06-14T07:17:21.759Z,692.00
2023-06-14T07:18:21.728Z,689.00
2023-06-14T07:19:21.744Z,714.00
2023-06-14T07:20:21.757Z,720.00
2023-06-14T07:21:21.737Z,730.00
2023-06-14T07:22:21.745Z,742.00
2023-06-14T07:23:21.760Z,734.00
2023-06-14T07:24:21.850Z,748.00
2023-06-14T07:25:21.754Z,758.00
2023-06-14T07:26:21.746Z,765.00
2023-06-14T07:27:22.155Z,775.00
2023-06-14T07:28:21.802Z,796.00
2023-06-14T07:29:21.844Z,789.00
2023-06-14T07:30:21.877Z,770.00
2023-06-14T07:31:21.866Z,659.00
2023-06-14T07:32:21.982Z,637.00
2023-06-14T07:33:22.029Z,598.00
2023-06-14T07:34:21.930Z,564.00
2023-06-14T07:35:21.955Z,542.00
2023-06-14T07:36:21.995Z,518.00
2023-06-14T07:37:22.048Z,501.00
2023-06-14T07:38:22.116Z,475.00
2023-06-14T07:39:22.097Z,464.00
2023-06-14T07:40:22.097Z,457.00
2023-06-14T07:41:23.113Z,454.00
2023-06-14T07:42:22.142Z,448.00
2023-06-14T07:43:23.005Z,443.00
2023-06-14T07:44:22.210Z,441.00
2023-06-14T07:45:22.277Z,436.00
2023-06-14T07:46:22.308Z,433.00
2023-06-14T07:47:22.483Z,433.00
2023-06-14T07:48:22.503Z,436.00
2023-06-14T07:49:22.504Z,435.00
2023-06-14T07:50:22.538Z,432.00
2023-06-14T07:51:22.583Z,433.00
2023-06-14T07:52:23.198Z,429.00
2023-06-14T07:53:22.706Z,430.00
2023-06-14T07:54:22.784Z,431.00
2023-06-14T07:55:22.841Z,430.00
2023-06-14T07:56:22.890Z,430.00
2023-06-14T07:57:23.161Z,430.00
2023-06-14T07:58:22.980Z,428.00
2023-06-14T07:59:23.019Z,425.00
2023-06-14T08:00:23.072Z,426.00
2023-06-14T08:01:23.116Z,426.00
2023-06-14T08:02:23.205Z,425.00
2023-06-14T08:03:23.292Z,424.00
2023-06-14T08:04:23.265Z,422.00
2023-06-14T08:05:23.330Z,421.00
2023-06-14T08:06:23.418Z,423.00
2023-06-14T08:07:23.468Z,423.00
2023-06-14T08:08:23.488Z,425.00
2023-06-14T08:09:23.543Z,429.00
2023-06-14T08:10:23.609Z,431.00
2023-06-14T08:11:23.657Z,432.00
2023-06-14T08:12:24.192Z,434.00
2023-06-14T08:13:23.740Z,437.00
2023-06-14T08:14:23.749Z,439.00
2023-06-14T08:15:23.767Z,436.00
2023-06-14T08:16:23.855Z,437.00
2023-06-14T08:17:24.202Z,438.00
2023-06-14T08:18:23.819Z,436.00
2023-06-14T08:19:23.824Z,435.00
2023-06-14T08:20:23.831Z,437.00
2023-06-14T08:21:23.848Z,440.00
2023-06-14T08:22:24.156Z,441.00
2023-06-14T08:23:23.862Z,443.00
2023-06-14T08:24:24.007Z,444.00
2023-06-14T08:25:23.881Z,442.00
2023-06-14T08:26:23.865Z,442.00
2023-06-14T08:27:23.886Z,441.00
2023-06-14T08:28:23.890Z,440.00
2023-06-14T08:29:23.869Z,441.00
2023-06-14T08:30:23.926Z,440.00
2023-06-14T08:31:23.861Z,440.00
2023-06-14T08:32:23.896Z,443.00
2023-06-14T08:33:23.955Z,446.00
2023-06-14T08:34:23.901Z,444.00
2023-06-14T08:35:24.018Z,445.00
2023-06-14T08:36:23.950Z,443.00
2023-06-14T08:37:24.170Z,441.00
2023-06-14T08:38:23.879Z,440.00
2023-06-14T08:39:23.904Z,438.00
2023-06-14T08:40:23.903Z,439.00
2023-06-14T08:41:23.892Z,444.00
2023-06-14T08:42:31.574Z,464.00
2023-06-14T08:43:24.889Z,525.00
2023-06-14T08:44:23.885Z,536.00
2023-06-14T08:45:26.656Z,546.00
2023-06-14T08:46:23.870Z,567.00
2023-06-14T08:47:23.889Z,605.00
2023-06-14T08:48:23.858Z,620.00
2023-06-14T08:49:23.854Z,622.00
2023-06-14T08:50:28.387Z,625.00
2023-06-14T08:51:24.834Z,630.00
2023-06-14T08:52:24.173Z,639.00
2023-06-14T08:53:23.829Z,646.00
2023-06-14T08:54:23.808Z,655.00
2023-06-14T08:55:23.826Z,651.00
2023-06-14T08:56:23.820Z,657.00
2023-06-14T08:57:23.788Z,709.00
2023-06-14T08:58:23.814Z,700.00
2023-06-14T08:59:23.792Z,709.00
2023-06-14T09:00:23.794Z,710.00
2023-06-14T09:01:23.831Z,716.00
2023-06-14T09:02:23.822Z,726.00
2023-06-14T09:03:23.792Z,732.00
2023-06-14T09:04:23.743Z,729.00
2023-06-14T09:05:23.746Z,730.00
2023-06-14T09:06:23.757Z,726.00
2023-06-14T09:07:23.721Z,747.00
2023-06-14T09:08:23.736Z,763.00
2023-06-14T09:09:23.749Z,767.00
2023-06-14T09:10:24.019Z,767.00
2023-06-14T09:11:23.762Z,764.00
2023-06-14T09:12:24.168Z,780.00
2023-06-14T09:13:23.746Z,776.00
2023-06-14T09:14:23.754Z,773.00
2023-06-14T09:15:23.759Z,756.00
2023-06-14T09:16:23.808Z,741.00
2023-06-14T09:17:24.166Z,727.00
2023-06-14T09:18:23.776Z,712.00
2023-06-14T09:19:23.799Z,693.00
2023-06-14T09:20:23.841Z,689.00
2023-06-14T09:21:23.838Z,681.00
2023-06-14T09:22:23.868Z,649.00
2023-06-14T09:23:23.928Z,652.00
2023-06-14T09:24:23.989Z,646.00
2023-06-14T09:25:37.978Z,570.00
2023-06-14T09:26:24.960Z,540.00
2023-06-14T09:27:24.195Z,525.00
2023-06-14T09:28:23.984Z,506.00
2023-06-14T09:29:23.973Z,496.00
2023-06-14T09:30:23.949Z,490.00
2023-06-14T09:31:24.011Z,484.00
2023-06-14T09:32:24.237Z,479.00
2023-06-14T09:33:23.953Z,471.00
2023-06-14T09:34:23.931Z,465.00
2023-06-14T09:35:23.923Z,462.00
2023-06-14T09:36:23.980Z,458.00
2023-06-14T09:37:23.953Z,453.00
2023-06-14T09:38:23.994Z,449.00
2023-06-14T09:39:24.065Z,444.00
2023-06-14T09:40:24.118Z,442.00
2023-06-14T09:41:24.175Z,439.00
2023-06-14T09:42:24.728Z,438.00
2023-06-14T09:43:24.283Z,431.00
2023-06-14T09:44:24.349Z,429.00
2023-06-14T09:45:24.404Z,428.00
2023-06-14T09:46:24.443Z,427.00
2023-06-14T09:47:24.704Z,427.00
2023-06-14T09:48:24.655Z,428.00
2023-06-14T09:49:24.710Z,427.00
2023-06-14T09:50:24.660Z,423.00
2023-06-14T09:51:24.701Z,421.00
2023-06-14T09:52:24.790Z,421.00
2023-06-14T09:53:24.802Z,421.00
2023-06-14T09:54:24.871Z,422.00
2023-06-14T09:55:24.938Z,421.00
2023-06-14T09:56:25.000Z,421.00
2023-06-14T09:57:25.180Z,420.00
2023-06-14T09:58:25.091Z,420.00
2023-06-14T09:59:25.153Z,419.00
2023-06-14T10:00:25.183Z,418.00
2023-06-14T10:01:25.296Z,417.00
2023-06-14T10:02:25.310Z,416.00
2023-06-14T10:03:25.658Z,415.00
2023-06-14T10:04:25.327Z,416.00
2023-06-14T10:05:25.379Z,413.00
2023-06-14T10:06:25.368Z,413.00
2023-06-14T10:07:25.369Z,416.00
2023-06-14T10:08:25.401Z,414.00
2023-06-14T10:09:25.446Z,415.00
2023-06-14T10:10:25.453Z,415.00
2023-06-14T10:11:25.481Z,418.00
2023-06-14T10:12:25.686Z,419.00
2023-06-14T10:13:25.539Z,419.00
2023-06-14T10:14:25.532Z,418.00
2023-06-14T10:15:25.525Z,417.00
2023-06-14T10:16:25.585Z,418.00
2023-06-14T10:17:25.705Z,418.00
2023-06-14T10:18:25.603Z,425.00
2023-06-14T10:19:25.649Z,442.00
2023-06-14T10:20:25.666Z,464.00
2023-06-14T10:21:27.613Z,494.00
2023-06-14T10:22:26.167Z,503.00
2023-06-14T10:23:25.864Z,516.00
2023-06-14T10:24:25.945Z,519.00
2023-06-14T10:25:25.975Z,515.00
2023-06-14T10:26:26.086Z,512.00
2023-06-14T10:27:26.237Z,513.00
2023-06-14T10:28:26.179Z,516.00
2023-06-14T10:29:26.193Z,513.00
2023-06-14T10:30:26.212Z,511.00
2023-06-14T10:31:26.305Z,512.00
2023-06-14T10:32:26.410Z,515.00
2023-06-14T10:33:26.364Z,515.00
2023-06-14T10:34:26.431Z,515.00
2023-06-14T10:35:26.476Z,514.00
2023-06-14T10:36:26.496Z,516.00
2023-06-14T10:37:26.550Z,513.00
2023-06-14T10:38:26.577Z,512.00
2023-06-14T10:39:26.648Z,510.00
2023-06-14T10:40:26.677Z,507.00
2023-06-14T10:41:26.698Z,506.00
2023-06-14T10:42:26.749Z,507.00
2023-06-14T10:43:26.807Z,505.00
2023-06-14T10:44:26.831Z,503.00
2023-06-14T10:45:26.902Z,500.00
2023-06-14T10:46:27.039Z,498.00
2023-06-14T10:47:27.035Z,496.00
2023-06-14T10:48:26.989Z,497.00
2023-06-14T10:49:27.014Z,494.00
2023-06-14T10:50:27.058Z,493.00
2023-06-14T10:51:27.098Z,489.00
2023-06-14T10:52:27.143Z,488.00
2023-06-14T10:53:27.304Z,487.00
2023-06-14T10:54:27.232Z,487.00
2023-06-14T10:55:27.283Z,485.00
2023-06-14T10:56:27.315Z,487.00
2023-06-14T10:57:27.667Z,488.00
2023-06-14T10:58:27.361Z,490.00
2023-06-14T10:59:27.410Z,490.00
2023-06-14T11:00:28.012Z,493.00
2023-06-14T11:01:27.524Z,492.00
2023-06-14T11:02:27.662Z,493.00
2023-06-14T11:03:27.566Z,493.00
2023-06-14T11:04:27.544Z,491.00
2023-06-14T11:05:27.597Z,493.00
2023-06-14T11:06:27.599Z,495.00
2023-06-14T11:07:27.632Z,493.00
2023-06-14T11:08:27.681Z,493.00
2023-06-14T11:09:27.694Z,494.00
2023-06-14T11:10:27.759Z,497.00
2023-06-14T11:11:27.776Z,502.00
2023-06-14T11:12:28.167Z,507.00
2023-06-14T11:13:28.413Z,508.00
2023-06-14T11:14:27.860Z,507.00
2023-06-14T11:15:27.932Z,506.00
2023-06-14T11:16:27.941Z,505.00
2023-06-14T11:17:28.205Z,503.00
2023-06-14T11:18:27.957Z,503.00
2023-06-14T11:19:27.959Z,501.00
2023-06-14T11:20:28.895Z,499.00
2023-06-14T11:21:28.179Z,500.00
2023-06-14T11:22:28.181Z,500.00
2023-06-14T11:23:28.045Z,499.00
2023-06-14T11:24:28.183Z,496.00
2023-06-14T11:25:28.116Z,494.00
2023-06-14T11:26:28.112Z,491.00
2023-06-14T11:27:28.134Z,490.00
2023-06-14T11:28:28.174Z,487.00
2023-06-14T11:29:28.194Z,485.00
2023-06-14T11:30:28.224Z,486.00
2023-06-14T11:31:28.325Z,487.00
2023-06-14T11:32:28.283Z,486.00
2023-06-14T11:33:28.276Z,486.00
2023-06-14T11:34:28.301Z,483.00
2023-06-14T11:35:28.319Z,484.00
2023-06-14T11:36:28.323Z,481.00
2023-06-14T11:37:28.359Z,481.00
2023-06-14T11:38:28.376Z,480.00
2023-06-14T11:39:28.369Z,477.00
2023-06-14T11:40:28.393Z,474.00
2023-06-14T11:41:28.417Z,475.00
2023-06-14T11:42:28.447Z,475.00
2023-06-14T11:43:28.468Z,473.00
2023-06-14T11:44:28.479Z,473.00
2023-06-14T11:45:28.484Z,475.00
2023-06-14T11:46:28.525Z,474.00
2023-06-14T11:47:28.594Z,473.00
2023-06-14T11:48:28.536Z,473.00
2023-06-14T11:49:28.569Z,471.00
2023-06-14T11:50:28.613Z,468.00
2023-06-14T11:51:28.612Z,467.00
2023-06-14T11:52:28.638Z,466.00
2023-06-14T11:53:28.640Z,465.00
2023-06-14T11:54:28.661Z,464.00
2023-06-14T11:55:28.693Z,464.00
2023-06-14T11:56:28.690Z,463.00
2023-06-14T11:57:28.910Z,462.00
2023-06-14T11:58:28.741Z,461.00
2023-06-14T11:59:28.765Z,461.00
2023-06-14T12:00:28.810Z,461.00
2023-06-14T12:01:28.817Z,463.00
2023-06-14T12:02:28.873Z,465.00
2023-06-14T12:03:28.911Z,463.00
2023-06-14T12:04:28.858Z,458.00
2023-06-14T12:05:28.883Z,456.00
2023-06-14T12:06:28.877Z,457.00
2023-06-14T12:07:28.874Z,458.00
2023-06-14T12:08:28.905Z,459.00
2023-06-14T12:09:28.903Z,459.00
2023-06-14T12:10:28.944Z,459.00
2023-06-14T12:11:28.966Z,458.00
2023-06-14T12:12:29.185Z,455.00
2023-06-14T12:13:28.973Z,454.00
2023-06-14T12:14:28.986Z,454.00
2023-06-14T12:15:29.009Z,457.00
2023-06-14T12:16:29.052Z,457.00
2023-06-14T12:17:29.206Z,456.00
2023-06-14T12:18:29.068Z,453.00
2023-06-14T12:19:29.085Z,452.00
2023-06-14T12:20:29.108Z,452.00
2023-06-14T12:21:29.109Z,450.00
2023-06-14T12:22:29.200Z,450.00
2023-06-14T12:23:29.122Z,450.00
2023-06-14T12:24:29.308Z,451.00
2023-06-14T12:25:29.166Z,454.00
2023-06-14T12:26:29.183Z,454.00
2023-06-14T12:27:29.198Z,453.00
2023-06-14T12:28:29.213Z,451.00
2023-06-14T12:29:29.229Z,450.00
2023-06-14T12:30:29.235Z,450.00